Terminal Aerodrome Forecast
Issued by NWS

Home | Current Version | Previous Version | Graphics & Text | Print | Product List | Glossary On
Versions: 1 2 3 4 5 6 7 8 9 10 11 12 13 14 15 16 17 18 19 20
000
FTUS43 KLSX 240500
TAFSUS
TAF
KSUS 240520Z 2406/2506 VRB03KT P6SM SKC
     FM241300 13006KT P6SM BKN090
     FM241700 14009KT 6SM -SHRA OVC060
     FM242000 14010KT P6SM BKN050
     FM250300 14007KT 6SM -SHRA OVC020=

USA.gov is the U.S. government's official web portal to all federal, state and local government web resources and services.